createdAt,value
2019-05-26T00:02:57.597Z,99.90
2019-05-26T00:05:59.204Z,99.90
2019-05-26T00:09:00.432Z,99.90
2019-05-26T00:12:01.964Z,99.90
2019-05-26T00:15:05.960Z,99.90
2019-05-26T00:18:07.397Z,99.90
2019-05-26T00:21:08.641Z,99.90
2019-05-26T00:24:10.320Z,99.90
2019-05-26T00:27:11.670Z,99.90
2019-05-26T00:30:13.027Z,99.90
2019-05-26T00:33:14.278Z,99.90
2019-05-26T00:36:16.173Z,99.90
2019-05-26T00:39:17.385Z,99.90
2019-05-26T00:42:18.828Z,99.90
2019-05-26T00:45:20.076Z,99.90
2019-05-26T00:48:21.477Z,99.90
2019-05-26T00:51:23.445Z,99.90
2019-05-26T00:54:24.998Z,99.90
2019-05-26T00:57:26.237Z,99.90
2019-05-26T01:00:38.886Z,99.90
2019-05-26T01:03:40.116Z,99.90
2019-05-26T01:06:41.367Z,99.90
2019-05-26T01:09:42.849Z,99.90
2019-05-26T01:12:44.060Z,99.90
2019-05-26T01:15:45.326Z,99.90
2019-05-26T01:18:46.557Z,99.90
2019-05-26T01:21:47.829Z,99.90
2019-05-26T01:24:49.057Z,99.90
2019-05-26T01:27:50.504Z,99.90
2019-05-26T01:30:51.741Z,99.90
2019-05-26T01:33:53.183Z,99.90
2019-05-26T01:36:54.525Z,99.90
2019-05-26T01:39:55.765Z,99.90
2019-05-26T01:42:57.137Z,99.90
2019-05-26T01:45:58.365Z,99.90
2019-05-26T01:48:59.742Z,99.90
2019-05-26T01:52:01.360Z,99.90
2019-05-26T01:55:04.761Z,99.90
2019-05-26T01:58:05.998Z,99.90
2019-05-26T02:01:07.314Z,99.90
2019-05-26T02:04:08.713Z,99.90
2019-05-26T02:07:10.436Z,99.90
2019-05-26T02:10:11.683Z,99.90
2019-05-26T02:13:13.117Z,99.90
2019-05-26T02:16:14.352Z,99.90
2019-05-26T02:19:15.802Z,99.90
2019-05-26T02:22:17.048Z,99.90
2019-05-26T02:25:18.890Z,99.90
2019-05-26T02:28:20.116Z,99.90
2019-05-26T02:31:21.557Z,99.90
2019-05-26T02:34:22.925Z,99.90
2019-05-26T02:37:24.170Z,99.90
2019-05-26T02:40:25.603Z,99.90
2019-05-26T02:43:26.835Z,99.90
2019-05-26T02:46:28.381Z,99.90
2019-05-26T02:49:29.610Z,99.90
2019-05-26T02:52:32.051Z,99.90
2019-05-26T02:55:33.289Z,99.90
2019-05-26T02:58:34.548Z,99.90
2019-05-26T03:01:35.981Z,99.90
2019-05-26T03:04:37.206Z,99.90
2019-05-26T03:07:44.210Z,99.90
2019-05-26T03:10:45.463Z,99.90
2019-05-26T03:13:46.715Z,99.90
2019-05-26T03:16:48.202Z,99.90
2019-05-26T03:19:49.765Z,99.90
2019-05-26T03:22:50.994Z,99.90
2019-05-26T03:25:52.438Z,99.90
2019-05-26T03:28:53.670Z,99.90
2019-05-26T03:31:55.118Z,99.90
2019-05-26T03:34:56.464Z,99.90
2019-05-26T03:37:57.899Z,99.90
2019-05-26T03:40:59.131Z,99.90
2019-05-26T03:44:00.566Z,99.90
2019-05-26T03:47:01.799Z,99.90
2019-05-26T03:50:06.120Z,99.90
2019-05-26T03:53:07.370Z,99.90
2019-05-26T03:56:08.794Z,99.90
2019-05-26T03:59:10.030Z,99.90
2019-05-26T04:02:11.489Z,99.90
2019-05-26T04:05:12.716Z,99.90
2019-05-26T04:08:14.175Z,99.90
2019-05-26T04:11:15.387Z,99.90
2019-05-26T04:14:16.651Z,99.70
2019-05-26T04:17:17.886Z,99.50
2019-05-26T04:20:19.246Z,98.50
2019-05-26T04:23:20.715Z,98.20
2019-05-26T04:26:22.094Z,97.70
2019-05-26T04:29:23.622Z,97.00
2019-05-26T04:32:24.995Z,96.80
2019-05-26T04:35:26.223Z,97.00
2019-05-26T04:38:27.792Z,97.30
2019-05-26T04:41:29.042Z,97.10
2019-05-26T04:44:30.297Z,96.80
2019-05-26T04:47:31.739Z,95.60
2019-05-26T04:50:33.017Z,95.20
2019-05-26T04:53:35.381Z,95.00
2019-05-26T04:56:36.622Z,94.50
2019-05-26T04:59:37.974Z,94.30
2019-05-26T05:02:39.222Z,93.60
2019-05-26T05:05:40.693Z,94.30
2019-05-26T05:08:41.960Z,93.50
2019-05-26T05:11:43.209Z,92.20
2019-05-26T05:14:44.448Z,91.00
2019-05-26T05:17:46.362Z,91.20
2019-05-26T05:20:47.672Z,92.00
2019-05-26T05:23:49.040Z,91.90
2019-05-26T05:26:50.283Z,91.50
2019-05-26T05:29:51.913Z,92.20
2019-05-26T05:32:53.182Z,90.70
2019-05-26T05:35:54.669Z,87.00
2019-05-26T05:38:55.960Z,86.50
2019-05-26T05:41:57.397Z,87.60
2019-05-26T05:44:59.088Z,86.10
2019-05-26T05:48:00.442Z,86.20
2019-05-26T05:51:01.886Z,82.50
2019-05-26T05:54:03.947Z,80.40
2019-05-26T05:57:05.570Z,80.10
2019-05-26T06:00:07.757Z,78.90
2019-05-26T06:03:10.741Z,80.00
2019-05-26T06:06:12.513Z,79.80
2019-05-26T06:09:14.208Z,80.50
2019-05-26T06:12:15.592Z,81.30
2019-05-26T06:15:17.745Z,81.10
2019-05-26T06:18:19.141Z,81.70
2019-05-26T06:21:20.890Z,82.40
2019-05-26T06:24:22.174Z,82.10
2019-05-26T06:27:23.448Z,78.90
2019-05-26T06:30:24.716Z,78.50
2019-05-26T06:33:26.175Z,76.60
2019-05-26T06:36:27.426Z,76.90
2019-05-26T06:39:28.972Z,77.00
2019-05-26T06:45:55.118Z,75.30
2019-05-26T06:48:56.418Z,76.90
2019-05-26T06:51:57.761Z,75.50
2019-05-26T06:54:59.128Z,75.30
2019-05-26T06:58:00.866Z,76.00
2019-05-26T07:01:02.320Z,75.00
2019-05-26T07:04:03.820Z,75.60
2019-05-26T07:07:05.070Z,73.90
2019-05-26T07:10:07.153Z,73.90
2019-05-26T07:13:08.419Z,74.20
2019-05-26T07:16:10.756Z,73.40
2019-05-26T07:19:11.993Z,73.60
2019-05-26T07:22:13.494Z,71.90
2019-05-26T07:25:15.066Z,73.00
2019-05-26T07:28:16.663Z,71.30
2019-05-26T07:31:18.175Z,72.30
2019-05-26T07:34:19.427Z,73.10
2019-05-26T07:37:21.030Z,71.40
2019-05-26T07:40:22.592Z,71.90
2019-05-26T07:43:27.877Z,70.80
2019-05-26T07:46:28.638Z,70.40
2019-05-26T07:49:29.918Z,71.80
2019-05-26T07:52:34.102Z,69.70
2019-05-26T07:55:35.710Z,69.90
2019-05-26T07:58:37.089Z,70.60
2019-05-26T08:01:38.566Z,70.10
2019-05-26T08:04:39.864Z,67.20
2019-05-26T08:07:41.274Z,68.30
2019-05-26T08:10:42.562Z,70.80
2019-05-26T08:13:43.849Z,66.90
2019-05-26T08:16:45.308Z,69.60
2019-05-26T08:19:47.136Z,72.00
2019-05-26T08:22:48.397Z,68.10
2019-05-26T08:25:49.990Z,66.70
2019-05-26T08:28:53.596Z,66.30
2019-05-26T08:31:55.831Z,69.40
2019-05-26T08:34:57.826Z,66.20
2019-05-26T08:38:00.391Z,66.90
2019-05-26T08:41:02.051Z,64.80
2019-05-26T08:44:04.402Z,66.50
2019-05-26T08:47:05.654Z,67.00
2019-05-26T08:50:07.368Z,64.70
2019-05-26T08:53:08.821Z,64.80
2019-05-26T08:56:10.954Z,61.70
2019-05-26T08:59:12.764Z,61.40
2019-05-26T09:02:15.047Z,58.50
2019-05-26T09:05:16.408Z,60.00
2019-05-26T09:08:18.208Z,59.00
2019-05-26T09:11:20.061Z,59.20
2019-05-26T09:14:21.555Z,59.90
2019-05-26T09:17:22.802Z,60.00
2019-05-26T09:20:24.714Z,61.60
2019-05-26T09:23:26.461Z,60.90
2019-05-26T09:26:27.861Z,61.30
2019-05-26T09:29:29.383Z,62.50
2019-05-26T09:32:30.885Z,61.00
2019-05-26T09:35:32.129Z,64.00
2019-05-26T09:38:33.427Z,61.80
2019-05-26T09:41:35.442Z,64.10
2019-05-26T09:44:36.949Z,64.50
2019-05-26T09:47:39.120Z,62.00
2019-05-26T09:50:40.609Z,60.90
2019-05-26T09:53:42.382Z,62.50
2019-05-26T09:56:44.657Z,58.70
2019-05-26T09:59:46.493Z,59.50
2019-05-26T10:02:47.949Z,60.00
2019-05-26T10:05:49.257Z,58.00
2019-05-26T10:08:50.825Z,56.70
2019-05-26T10:11:52.361Z,56.50
2019-05-26T10:14:53.662Z,57.10
2019-05-26T10:17:55.232Z,55.60
2019-05-26T10:20:56.533Z,56.20
2019-05-26T10:23:58.046Z,57.50
2019-05-26T10:26:59.304Z,58.00
2019-05-26T10:30:00.657Z,57.00
2019-05-26T10:33:01.890Z,58.80
2019-05-26T10:36:03.459Z,57.10
2019-05-26T10:39:06.498Z,55.40
2019-05-26T10:42:07.747Z,56.70
2019-05-26T10:45:09.323Z,57.50
2019-05-26T10:48:12.469Z,59.00
2019-05-26T10:51:13.720Z,55.70
2019-05-26T10:54:14.993Z,55.60
2019-05-26T10:57:16.716Z,54.10
2019-05-26T11:00:17.967Z,54.10
2019-05-26T11:03:19.418Z,53.90
2019-05-26T11:06:20.647Z,54.30
2019-05-26T11:09:22.089Z,54.00
2019-05-26T11:12:23.705Z,53.40
2019-05-26T11:15:25.093Z,53.10
2019-05-26T11:18:26.349Z,54.60
2019-05-26T11:21:28.027Z,54.70
2019-05-26T11:24:29.277Z,51.30
2019-05-26T11:27:30.744Z,50.50
2019-05-26T11:30:31.999Z,48.50
2019-05-26T11:33:33.580Z,46.70
2019-05-26T11:36:34.912Z,45.90
2019-05-26T11:39:36.177Z,45.90
2019-05-26T11:42:37.429Z,48.50
2019-05-26T11:45:38.905Z,47.80
2019-05-26T11:48:40.830Z,48.40
2019-05-26T11:51:42.394Z,46.60
2019-05-26T11:54:43.639Z,45.40
2019-05-26T11:57:44.881Z,43.30
2019-05-26T12:00:46.169Z,46.10
2019-05-26T12:03:47.611Z,41.10
2019-05-26T12:06:48.854Z,42.00
2019-05-26T12:09:50.115Z,41.40
2019-05-26T12:12:51.386Z,43.40
2019-05-26T12:15:52.936Z,42.40
2019-05-26T12:18:54.353Z,43.50
2019-05-26T12:21:55.760Z,43.00
2019-05-26T12:24:57.017Z,41.50
2019-05-26T12:27:58.461Z,39.30
2019-05-26T12:30:59.755Z,38.70
2019-05-26T12:34:01.170Z,38.60
2019-05-26T12:37:02.517Z,38.40
2019-05-26T12:40:06.666Z,35.10
2019-05-26T12:43:07.997Z,36.10
2019-05-26T12:46:09.273Z,37.10
2019-05-26T12:49:10.581Z,36.60
2019-05-26T12:52:13.287Z,37.90
2019-05-26T12:55:15.157Z,36.20
2019-05-26T12:58:16.670Z,35.40
2019-05-26T13:01:17.890Z,32.60
2019-05-26T13:04:20.123Z,34.00
2019-05-26T13:07:21.358Z,34.50
2019-05-26T13:10:23.051Z,35.80
2019-05-26T13:13:24.354Z,35.00
2019-05-26T13:16:26.163Z,34.00
2019-05-26T13:19:27.377Z,34.40
2019-05-26T13:22:29.029Z,35.20
2019-05-26T13:25:30.268Z,36.90
2019-05-26T13:28:31.525Z,38.50
2019-05-26T13:31:32.975Z,35.60
2019-05-26T13:34:35.805Z,37.30
2019-05-26T13:37:37.469Z,38.90
2019-05-26T13:40:38.936Z,37.10
2019-05-26T13:43:40.916Z,35.70
2019-05-26T13:46:42.889Z,35.30
2019-05-26T13:49:44.780Z,38.30
2019-05-26T13:52:46.535Z,39.30
2019-05-26T13:55:49.396Z,39.50
2019-05-26T13:58:51.183Z,38.10
2019-05-26T14:01:52.469Z,37.50
2019-05-26T14:04:53.901Z,34.40
2019-05-26T14:07:55.527Z,34.80
2019-05-26T14:10:56.882Z,36.10
2019-05-26T14:13:58.618Z,34.40
2019-05-26T14:16:59.866Z,33.60
2019-05-26T14:20:02.814Z,33.60
2019-05-26T14:23:05.496Z,34.90
2019-05-26T14:26:06.730Z,38.20
2019-05-26T14:29:08.084Z,35.40
2019-05-26T14:32:09.869Z,35.60
2019-05-26T14:35:11.137Z,34.00
2019-05-26T14:38:12.786Z,31.90
2019-05-26T14:41:14.222Z,29.70
2019-05-26T14:44:15.718Z,30.90
2019-05-26T14:47:17.003Z,31.00
2019-05-26T14:50:18.400Z,30.80
2019-05-26T14:53:20.158Z,29.40
2019-05-26T14:56:22.334Z,28.90
2019-05-26T14:59:24.211Z,28.40
2019-05-26T15:02:25.447Z,29.00
2019-05-26T15:05:27.138Z,30.10
2019-05-26T15:08:28.422Z,30.50
2019-05-26T15:11:29.788Z,30.20
2019-05-26T15:14:31.025Z,28.90
2019-05-26T15:17:32.389Z,30.00
2019-05-26T15:20:33.647Z,30.90
2019-05-26T15:23:35.030Z,29.10
2019-05-26T15:26:36.279Z,29.30
2019-05-26T15:29:37.525Z,30.20
2019-05-26T15:32:38.931Z,31.80
2019-05-26T15:35:44.829Z,31.30
2019-05-26T15:38:46.090Z,32.90
2019-05-26T15:41:47.359Z,31.90
2019-05-26T15:44:55.148Z,30.50
2019-05-26T15:47:56.492Z,31.90
2019-05-26T15:51:01.002Z,35.10
2019-05-26T15:54:02.722Z,36.40
2019-05-26T15:57:05.728Z,38.60
2019-05-26T16:00:08.720Z,40.50
2019-05-26T16:03:10.143Z,45.20
2019-05-26T16:06:15.017Z,43.20
2019-05-26T16:09:19.456Z,43.40
2019-05-26T16:12:21.453Z,44.70
2019-05-26T16:15:26.363Z,42.80
2019-05-26T16:18:28.078Z,43.00
2019-05-26T16:21:32.909Z,40.80
2019-05-26T16:24:36.359Z,41.80
2019-05-26T16:27:40.914Z,41.10
2019-05-26T16:30:42.927Z,41.10
2019-05-26T16:33:45.330Z,39.20
2019-05-26T16:36:48.407Z,38.80
2019-05-26T16:39:50.829Z,39.30
2019-05-26T16:42:52.526Z,37.80
2019-05-26T16:45:56.471Z,36.20
2019-05-26T16:48:57.079Z,34.50
2019-05-26T16:51:58.405Z,33.80
2019-05-26T16:54:59.720Z,33.00
2019-05-26T16:58:01.577Z,33.30
2019-05-26T17:01:02.863Z,31.90
2019-05-26T17:04:04.325Z,32.60
2019-05-26T17:07:07.076Z,34.80
2019-05-26T17:10:08.329Z,38.00
2019-05-26T17:13:10.194Z,39.10
2019-05-26T17:16:11.452Z,42.10
2019-05-26T17:19:13.751Z,42.80
2019-05-26T17:22:15.891Z,45.10
2019-05-26T17:25:18.637Z,46.50
2019-05-26T17:28:20.767Z,49.10
2019-05-26T17:31:23.089Z,48.80
2019-05-26T17:34:25.615Z,49.90
2019-05-26T17:37:28.755Z,51.10
2019-05-26T17:40:31.522Z,54.20
2019-05-26T17:43:34.097Z,56.40
2019-05-26T17:46:36.145Z,59.10
2019-05-26T17:49:40.632Z,60.00
2019-05-26T17:52:42.858Z,60.00
2019-05-26T17:55:45.257Z,60.70
2019-05-26T17:58:48.418Z,61.90
2019-05-26T18:01:53.151Z,63.30
2019-05-26T18:04:55.108Z,63.60
2019-05-26T18:07:56.389Z,65.00
2019-05-26T18:10:57.833Z,67.40
2019-05-26T18:14:00.197Z,68.10
2019-05-26T18:17:02.589Z,69.50
2019-05-26T18:20:07.751Z,70.60
2019-05-26T18:23:09.449Z,72.10
2019-05-26T18:26:10.745Z,74.70
2019-05-26T18:29:12.256Z,76.10
2019-05-26T18:32:13.567Z,77.80
2019-05-26T18:35:15.065Z,80.10
2019-05-26T18:38:16.438Z,82.50
2019-05-26T18:41:20.803Z,84.30
2019-05-26T18:44:22.226Z,86.20
2019-05-26T18:47:23.849Z,88.00
2019-05-26T18:50:25.647Z,89.40
2019-05-26T18:53:29.643Z,90.30
2019-05-26T18:56:30.631Z,90.70
2019-05-26T18:59:32.534Z,91.00
2019-05-26T19:02:34.204Z,91.30
2019-05-26T19:05:38.314Z,91.70
2019-05-26T19:08:40.846Z,91.90
2019-05-26T19:11:42.072Z,92.10
2019-05-26T19:14:43.592Z,92.40
2019-05-26T19:17:44.823Z,92.70
2019-05-26T19:20:46.560Z,92.90
2019-05-26T19:23:47.824Z,93.00
2019-05-26T19:26:51.407Z,93.20
2019-05-26T19:29:52.562Z,93.30
2019-05-26T19:32:53.813Z,93.00
2019-05-26T19:35:55.630Z,92.90
2019-05-26T19:38:58.451Z,92.90
2019-05-26T19:42:00.306Z,93.00
2019-05-26T19:45:04.663Z,93.80
2019-05-26T19:48:05.943Z,94.10
2019-05-26T19:51:10.446Z,94.50
2019-05-26T19:54:11.910Z,95.00
2019-05-26T19:57:13.647Z,95.30
2019-05-26T20:00:16.614Z,95.30
2019-05-26T20:03:20.759Z,95.90
2019-05-26T20:06:22.364Z,96.10
2019-05-26T20:09:24.142Z,96.30
2019-05-26T20:12:26.376Z,96.50
2019-05-26T20:15:30.169Z,96.50
2019-05-26T20:18:32.475Z,95.90
2019-05-26T20:21:34.459Z,96.00
2019-05-26T20:24:35.739Z,96.10
2019-05-26T20:27:39.366Z,96.50
2019-05-26T20:30:40.751Z,96.50
2019-05-26T20:33:43.081Z,96.80
2019-05-26T20:36:44.313Z,96.40
2019-05-26T20:39:46.256Z,96.50
2019-05-26T20:42:51.677Z,96.60
2019-05-26T20:45:57.070Z,96.80
2019-05-26T20:48:58.568Z,96.70
2019-05-26T20:52:02.475Z,97.20
2019-05-26T20:55:06.210Z,98.00
2019-05-26T20:58:08.505Z,97.80
2019-05-26T21:01:09.945Z,97.90
2019-05-26T21:04:11.627Z,98.10
2019-05-26T21:07:14.052Z,98.20
2019-05-26T21:10:16.360Z,98.00
2019-05-26T21:13:18.765Z,98.30
2019-05-26T21:16:20.355Z,98.40
2019-05-26T21:19:24.329Z,98.20
2019-05-26T21:22:26.818Z,98.40
2019-05-26T21:25:29.415Z,98.90
2019-05-26T21:28:30.823Z,99.00
2019-05-26T21:31:32.967Z,98.90
2019-05-26T21:34:34.270Z,98.80
2019-05-26T21:37:36.243Z,98.70
2019-05-26T21:40:38.164Z,99.20
2019-05-26T21:43:40.558Z,99.40
2019-05-26T21:46:41.839Z,99.70
2019-05-26T21:49:43.718Z,99.30
2019-05-26T21:52:45.534Z,99.20
2019-05-26T21:55:47.725Z,99.20
2019-05-26T21:58:50.439Z,99.00
2019-05-26T22:01:53.018Z,99.00
2019-05-26T22:04:54.860Z,99.30
2019-05-26T22:07:56.488Z,99.30
2019-05-26T22:10:57.952Z,99.50
2019-05-26T22:13:59.378Z,99.30
2019-05-26T22:17:00.633Z,99.50
2019-05-26T22:20:03.769Z,99.70
2019-05-26T22:23:05.277Z,99.80
2019-05-26T22:26:07.120Z,99.80
2019-05-26T22:29:08.749Z,99.90
2019-05-26T22:32:10.121Z,99.90
2019-05-26T22:35:11.786Z,99.90
2019-05-26T22:38:13.305Z,99.90
2019-05-26T22:41:14.605Z,99.90
2019-05-26T22:44:16.774Z,99.90
2019-05-26T22:47:18.001Z,99.90
2019-05-26T22:50:19.710Z,99.90
2019-05-26T22:53:20.996Z,99.90
2019-05-26T22:56:22.391Z,99.90
2019-05-26T22:59:23.650Z,99.90
2019-05-26T23:02:25.107Z,99.90
2019-05-26T23:05:26.326Z,99.90
2019-05-26T23:08:27.768Z,99.90
2019-05-26T23:11:29.109Z,99.90
2019-05-26T23:14:30.713Z,99.90
2019-05-26T23:17:31.935Z,99.90
2019-05-26T23:20:33.478Z,99.90
2019-05-26T23:23:35.513Z,99.90
2019-05-26T23:26:36.745Z,99.90
2019-05-26T23:29:38.171Z,99.90
2019-05-26T23:32:39.397Z,99.90
2019-05-26T23:35:40.833Z,99.90
2019-05-26T23:38:42.078Z,99.90
2019-05-26T23:41:43.749Z,99.90
2019-05-26T23:44:44.982Z,99.90
2019-05-26T23:47:46.240Z,99.90
2019-05-26T23:50:48.741Z,99.90
2019-05-26T23:53:49.938Z,99.90
2019-05-26T23:56:52.043Z,99.90
2019-05-26T23:59:54.961Z,99.90
